sensor_id;sensor_type;location;lat;lon;timestamp;temperature;humidity
1716;DHT22;855;48.824;9.220;2023-03-23T00:00:22;15.10;71.30
1716;DHT22;855;48.824;9.220;2023-03-23T00:02:49;15.10;72.60
1716;DHT22;855;48.824;9.220;2023-03-23T00:05:16;15.20;73.40
1716;DHT22;855;48.824;9.220;2023-03-23T00:07:43;15.20;74.60
1716;DHT22;855;48.824;9.220;2023-03-23T00:10:10;15.10;75.00
1716;DHT22;855;48.824;9.220;2023-03-23T00:12:37;15.00;76.20
1716;DHT22;855;48.824;9.220;2023-03-23T00:15:09;14.90;76.30
1716;DHT22;855;48.824;9.220;2023-03-23T00:17:39;14.90;72.70
1716;DHT22;855;48.824;9.220;2023-03-23T00:20:06;14.90;70.60
1716;DHT22;855;48.824;9.220;2023-03-23T00:22:37;14.90;70.10
1716;DHT22;855;48.824;9.220;2023-03-23T00:25:05;15.00;69.80
1716;DHT22;855;48.824;9.220;2023-03-23T00:27:33;15.00;69.30
1716;DHT22;855;48.824;9.220;2023-03-23T00:30:00;14.90;68.60
1716;DHT22;855;48.824;9.220;2023-03-23T00:32:28;14.90;69.40
1716;DHT22;855;48.824;9.220;2023-03-23T00:34:56;14.80;68.10
1716;DHT22;855;48.824;9.220;2023-03-23T00:37:25;14.90;68.00
1716;DHT22;855;48.824;9.220;2023-03-23T00:39:52;14.90;67.50
1716;DHT22;855;48.824;9.220;2023-03-23T00:42:23;14.90;66.30
1716;DHT22;855;48.824;9.220;2023-03-23T00:44:50;15.00;65.90
1716;DHT22;855;48.824;9.220;2023-03-23T00:47:19;15.10;65.70
1716;DHT22;855;48.824;9.220;2023-03-23T00:49:47;15.10;64.50
1716;DHT22;855;48.824;9.220;2023-03-23T00:52:17;15.10;64.70
1716;DHT22;855;48.824;9.220;2023-03-23T00:54:44;15.10;63.90
1716;DHT22;855;48.824;9.220;2023-03-23T00:57:11;15.20;63.50
1716;DHT22;855;48.824;9.220;2023-03-23T00:59:38;15.10;63.40
1716;DHT22;855;48.824;9.220;2023-03-23T01:02:05;15.10;63.50
1716;DHT22;855;48.824;9.220;2023-03-23T01:04:32;15.10;63.40
1716;DHT22;855;48.824;9.220;2023-03-23T01:07:03;15.10;63.20
1716;DHT22;855;48.824;9.220;2023-03-23T01:09:30;15.00;63.00
1716;DHT22;855;48.824;9.220;2023-03-23T01:11:57;14.90;62.80
1716;DHT22;855;48.824;9.220;2023-03-23T01:14:24;14.90;63.20
1716;DHT22;855;48.824;9.220;2023-03-23T01:16:51;14.80;63.00
1716;DHT22;855;48.824;9.220;2023-03-23T01:19:18;14.90;62.80
1716;DHT22;855;48.824;9.220;2023-03-23T01:21:45;14.90;62.30
1716;DHT22;855;48.824;9.220;2023-03-23T01:24:13;14.90;62.60
1716;DHT22;855;48.824;9.220;2023-03-23T01:26:40;14.90;62.40
1716;DHT22;855;48.824;9.220;2023-03-23T01:29:07;15.00;61.90
1716;DHT22;855;48.824;9.220;2023-03-23T01:31:34;15.10;61.60
1716;DHT22;855;48.824;9.220;2023-03-23T01:34:02;15.10;61.60
1716;DHT22;855;48.824;9.220;2023-03-23T01:36:30;15.10;61.80
1716;DHT22;855;48.824;9.220;2023-03-23T01:38:59;15.10;61.50
1716;DHT22;855;48.824;9.220;2023-03-23T01:41:27;15.10;61.60
1716;DHT22;855;48.824;9.220;2023-03-23T01:43:57;15.20;61.00
1716;DHT22;855;48.824;9.220;2023-03-23T01:46:26;15.20;61.20
1716;DHT22;855;48.824;9.220;2023-03-23T01:48:53;15.20;61.10
1716;DHT22;855;48.824;9.220;2023-03-23T01:51:21;15.20;61.00
1716;DHT22;855;48.824;9.220;2023-03-23T01:53:51;15.20;61.00
1716;DHT22;855;48.824;9.220;2023-03-23T01:56:22;15.30;60.80
1716;DHT22;855;48.824;9.220;2023-03-23T01:58:52;15.50;60.80
1716;DHT22;855;48.824;9.220;2023-03-23T02:01:21;15.50;60.40
1716;DHT22;855;48.824;9.220;2023-03-23T02:03:52;15.50;60.40
1716;DHT22;855;48.824;9.220;2023-03-23T02:06:21;15.40;60.60
1716;DHT22;855;48.824;9.220;2023-03-23T02:08:49;15.50;60.60
1716;DHT22;855;48.824;9.220;2023-03-23T02:11:19;15.50;60.40
1716;DHT22;855;48.824;9.220;2023-03-23T02:13:47;15.60;60.30
1716;DHT22;855;48.824;9.220;2023-03-23T02:16:22;15.50;60.70
1716;DHT22;855;48.824;9.220;2023-03-23T02:19:08;15.50;60.80
1716;DHT22;855;48.824;9.220;2023-03-23T02:24:56;15.60;60.30
1716;DHT22;855;48.824;9.220;2023-03-23T02:27:47;15.60;60.20
1716;DHT22;855;48.824;9.220;2023-03-23T02:30:38;15.70;60.30
1716;DHT22;855;48.824;9.220;2023-03-23T02:33:27;15.60;60.80
1716;DHT22;855;48.824;9.220;2023-03-23T02:35:56;15.60;60.80
1716;DHT22;855;48.824;9.220;2023-03-23T02:38:30;15.50;60.80
1716;DHT22;855;48.824;9.220;2023-03-23T02:41:00;15.40;61.10
1716;DHT22;855;48.824;9.220;2023-03-23T02:43:31;15.30;60.80
1716;DHT22;855;48.824;9.220;2023-03-23T02:45:58;15.20;61.50
1716;DHT22;855;48.824;9.220;2023-03-23T02:48:28;15.20;61.90
1716;DHT22;855;48.824;9.220;2023-03-23T02:50:57;15.00;62.70
1716;DHT22;855;48.824;9.220;2023-03-23T02:53:26;14.90;63.10
1716;DHT22;855;48.824;9.220;2023-03-23T02:55:56;15.00;63.40
1716;DHT22;855;48.824;9.220;2023-03-23T02:58:24;15.00;63.50
1716;DHT22;855;48.824;9.220;2023-03-23T03:00:53;15.00;63.80
1716;DHT22;855;48.824;9.220;2023-03-23T03:03:23;14.90;63.90
1716;DHT22;855;48.824;9.220;2023-03-23T03:06:03;14.90;64.30
1716;DHT22;855;48.824;9.220;2023-03-23T03:08:37;14.80;64.70
1716;DHT22;855;48.824;9.220;2023-03-23T03:11:09;14.70;65.10
1716;DHT22;855;48.824;9.220;2023-03-23T03:13:43;14.70;65.50
1716;DHT22;855;48.824;9.220;2023-03-23T03:16:19;14.70;65.50
1716;DHT22;855;48.824;9.220;2023-03-23T03:18:50;14.70;65.20
1716;DHT22;855;48.824;9.220;2023-03-23T03:21:21;14.70;65.10
1716;DHT22;855;48.824;9.220;2023-03-23T03:23:53;14.70;65.10
1716;DHT22;855;48.824;9.220;2023-03-23T03:26:22;14.80;64.90
1716;DHT22;855;48.824;9.220;2023-03-23T03:28:52;14.80;65.20
1716;DHT22;855;48.824;9.220;2023-03-23T03:31:22;14.80;64.90
1716;DHT22;855;48.824;9.220;2023-03-23T03:33:50;14.80;65.20
1716;DHT22;855;48.824;9.220;2023-03-23T03:36:22;14.80;65.10
1716;DHT22;855;48.824;9.220;2023-03-23T03:38:51;14.80;65.10
1716;DHT22;855;48.824;9.220;2023-03-23T03:41:20;14.90;64.90
1716;DHT22;855;48.824;9.220;2023-03-23T03:43:46;14.90;64.70
1716;DHT22;855;48.824;9.220;2023-03-23T03:46:13;15.00;64.30
1716;DHT22;855;48.824;9.220;2023-03-23T03:48:40;15.10;63.90
1716;DHT22;855;48.824;9.220;2023-03-23T03:51:07;15.10;63.80
1716;DHT22;855;48.824;9.220;2023-03-23T03:53:36;15.10;63.50
1716;DHT22;855;48.824;9.220;2023-03-23T03:56:04;15.10;63.50
1716;DHT22;855;48.824;9.220;2023-03-23T03:58:32;15.00;63.60
1716;DHT22;855;48.824;9.220;2023-03-23T04:01:02;15.00;63.50
1716;DHT22;855;48.824;9.220;2023-03-23T04:03:28;15.00;63.40
1716;DHT22;855;48.824;9.220;2023-03-23T04:05:56;15.00;63.20
1716;DHT22;855;48.824;9.220;2023-03-23T04:08:24;15.00;63.20
1716;DHT22;855;48.824;9.220;2023-03-23T04:10:53;15.10;63.10
1716;DHT22;855;48.824;9.220;2023-03-23T04:13:20;15.10;63.20
1716;DHT22;855;48.824;9.220;2023-03-23T04:15:47;15.20;63.50
1716;DHT22;855;48.824;9.220;2023-03-23T04:18:15;15.20;63.00
1716;DHT22;855;48.824;9.220;2023-03-23T04:20:43;15.30;62.60
1716;DHT22;855;48.824;9.220;2023-03-23T04:23:12;15.30;62.40
1716;DHT22;855;48.824;9.220;2023-03-23T04:25:39;15.30;62.60
1716;DHT22;855;48.824;9.220;2023-03-23T04:28:08;15.20;62.70
1716;DHT22;855;48.824;9.220;2023-03-23T04:30:35;15.30;62.80
1716;DHT22;855;48.824;9.220;2023-03-23T04:33:02;15.40;62.80
1716;DHT22;855;48.824;9.220;2023-03-23T04:35:30;15.40;62.70
1716;DHT22;855;48.824;9.220;2023-03-23T04:37:57;15.30;63.10
1716;DHT22;855;48.824;9.220;2023-03-23T04:40:23;15.30;63.20
1716;DHT22;855;48.824;9.220;2023-03-23T04:42:51;15.20;63.60
1716;DHT22;855;48.824;9.220;2023-03-23T04:45:24;15.10;64.00
1716;DHT22;855;48.824;9.220;2023-03-23T04:47:52;15.10;64.00
1716;DHT22;855;48.824;9.220;2023-03-23T04:50:24;15.00;64.40
1716;DHT22;855;48.824;9.220;2023-03-23T04:52:53;14.90;64.70
1716;DHT22;855;48.824;9.220;2023-03-23T04:55:23;14.90;64.80
1716;DHT22;855;48.824;9.220;2023-03-23T04:57:50;15.00;64.80
1716;DHT22;855;48.824;9.220;2023-03-23T05:00:18;15.00;64.90
1716;DHT22;855;48.824;9.220;2023-03-23T05:02:47;15.10;64.90
1716;DHT22;855;48.824;9.220;2023-03-23T05:05:17;15.20;64.50
1716;DHT22;855;48.824;9.220;2023-03-23T05:07:45;15.30;64.30
1716;DHT22;855;48.824;9.220;2023-03-23T05:10:12;15.30;64.20
1716;DHT22;855;48.824;9.220;2023-03-23T05:12:39;15.30;64.20
1716;DHT22;855;48.824;9.220;2023-03-23T05:15:07;15.30;64.20
1716;DHT22;855;48.824;9.220;2023-03-23T05:17:34;15.40;64.00
1716;DHT22;855;48.824;9.220;2023-03-23T05:20:04;15.40;63.90
1716;DHT22;855;48.824;9.220;2023-03-23T05:22:33;15.40;64.00
1716;DHT22;855;48.824;9.220;2023-03-23T05:25:02;15.40;64.00
1716;DHT22;855;48.824;9.220;2023-03-23T05:27:30;15.40;64.00
1716;DHT22;855;48.824;9.220;2023-03-23T05:29:58;15.40;63.80
1716;DHT22;855;48.824;9.220;2023-03-23T05:32:26;15.40;63.80
1716;DHT22;855;48.824;9.220;2023-03-23T05:34:56;15.50;63.90
1716;DHT22;855;48.824;9.220;2023-03-23T05:37:24;15.60;63.80
1716;DHT22;855;48.824;9.220;2023-03-23T05:39:52;15.60;63.50
1716;DHT22;855;48.824;9.220;2023-03-23T05:42:21;15.70;63.40
1716;DHT22;855;48.824;9.220;2023-03-23T05:44:49;15.80;63.40
1716;DHT22;855;48.824;9.220;2023-03-23T05:47:16;15.80;63.20
1716;DHT22;855;48.824;9.220;2023-03-23T05:49:43;15.80;63.90
1716;DHT22;855;48.824;9.220;2023-03-23T05:52:10;15.80;63.50
1716;DHT22;855;48.824;9.220;2023-03-23T05:54:38;15.70;64.00
1716;DHT22;855;48.824;9.220;2023-03-23T05:57:07;15.60;64.80
1716;DHT22;855;48.824;9.220;2023-03-23T05:59:34;15.60;63.50
1716;DHT22;855;48.824;9.220;2023-03-23T06:02:01;15.60;62.80
1716;DHT22;855;48.824;9.220;2023-03-23T06:04:27;15.60;62.80
1716;DHT22;855;48.824;9.220;2023-03-23T06:06:54;15.70;62.40
1716;DHT22;855;48.824;9.220;2023-03-23T06:09:21;15.80;62.70
1716;DHT22;855;48.824;9.220;2023-03-23T06:11:50;15.90;62.60
1716;DHT22;855;48.824;9.220;2023-03-23T06:14:17;16.00;61.90
1716;DHT22;855;48.824;9.220;2023-03-23T06:16:44;16.10;61.10
1716;DHT22;855;48.824;9.220;2023-03-23T06:19:11;16.10;61.10
1716;DHT22;855;48.824;9.220;2023-03-23T06:21:37;16.20;61.00
1716;DHT22;855;48.824;9.220;2023-03-23T06:24:05;16.20;60.60
1716;DHT22;855;48.824;9.220;2023-03-23T06:26:34;16.20;60.30
1716;DHT22;855;48.824;9.220;2023-03-23T06:29:04;16.20;60.60
1716;DHT22;855;48.824;9.220;2023-03-23T06:31:38;16.30;60.60
1716;DHT22;855;48.824;9.220;2023-03-23T06:34:05;16.40;60.20
1716;DHT22;855;48.824;9.220;2023-03-23T06:36:32;16.50;59.80
1716;DHT22;855;48.824;9.220;2023-03-23T06:38:59;16.50;59.30
1716;DHT22;855;48.824;9.220;2023-03-23T06:41:26;16.50;59.30
1716;DHT22;855;48.824;9.220;2023-03-23T06:43:53;16.50;59.20
1716;DHT22;855;48.824;9.220;2023-03-23T06:46:21;16.50;59.50
1716;DHT22;855;48.824;9.220;2023-03-23T06:48:49;16.50;60.00
1716;DHT22;855;48.824;9.220;2023-03-23T06:51:16;16.60;60.00
1716;DHT22;855;48.824;9.220;2023-03-23T06:53:43;16.60;60.60
1716;DHT22;855;48.824;9.220;2023-03-23T06:56:10;16.70;60.30
1716;DHT22;855;48.824;9.220;2023-03-23T06:58:38;16.80;60.00
1716;DHT22;855;48.824;9.220;2023-03-23T07:01:05;16.90;59.90
1716;DHT22;855;48.824;9.220;2023-03-23T07:03:35;17.00;60.00
1716;DHT22;855;48.824;9.220;2023-03-23T07:06:02;17.20;59.40
1716;DHT22;855;48.824;9.220;2023-03-23T07:08:29;17.30;59.20
1716;DHT22;855;48.824;9.220;2023-03-23T07:10:56;17.50;59.00
1716;DHT22;855;48.824;9.220;2023-03-23T07:13:23;17.60;58.40
1716;DHT22;855;48.824;9.220;2023-03-23T07:15:50;17.70;58.70
1716;DHT22;855;48.824;9.220;2023-03-23T07:18:17;17.70;58.50
1716;DHT22;855;48.824;9.220;2023-03-23T07:20:48;17.80;58.50
1716;DHT22;855;48.824;9.220;2023-03-23T07:23:15;17.90;58.80
1716;DHT22;855;48.824;9.220;2023-03-23T07:25:43;17.90;58.70
1716;DHT22;855;48.824;9.220;2023-03-23T07:28:10;17.90;58.20
1716;DHT22;855;48.824;9.220;2023-03-23T07:30:37;18.00;57.90
1716;DHT22;855;48.824;9.220;2023-03-23T07:33:05;18.00;57.90
1716;DHT22;855;48.824;9.220;2023-03-23T07:35:33;18.00;58.20
1716;DHT22;855;48.824;9.220;2023-03-23T07:38:01;18.00;58.70
1716;DHT22;855;48.824;9.220;2023-03-23T07:40:29;18.00;59.00
1716;DHT22;855;48.824;9.220;2023-03-23T07:42:59;18.00;59.70
1716;DHT22;855;48.824;9.220;2023-03-23T07:45:26;18.00;60.40
1716;DHT22;855;48.824;9.220;2023-03-23T07:47:53;18.00;61.20
1716;DHT22;855;48.824;9.220;2023-03-23T07:50:20;18.00;60.80
1716;DHT22;855;48.824;9.220;2023-03-23T07:52:47;18.00;58.70
1716;DHT22;855;48.824;9.220;2023-03-23T07:55:16;18.00;58.00
1716;DHT22;855;48.824;9.220;2023-03-23T07:57:44;18.00;59.70
1716;DHT22;855;48.824;9.220;2023-03-23T08:00:12;18.10;57.90
1716;DHT22;855;48.824;9.220;2023-03-23T08:02:40;18.20;58.40
1716;DHT22;855;48.824;9.220;2023-03-23T08:05:07;18.30;56.50
1716;DHT22;855;48.824;9.220;2023-03-23T08:07:35;18.20;58.00
1716;DHT22;855;48.824;9.220;2023-03-23T08:10:03;18.20;57.90
1716;DHT22;855;48.824;9.220;2023-03-23T08:12:31;18.20;57.50
1716;DHT22;855;48.824;9.220;2023-03-23T08:14:58;18.00;58.00
1716;DHT22;855;48.824;9.220;2023-03-23T08:17:25;18.00;58.30
1716;DHT22;855;48.824;9.220;2023-03-23T08:19:52;18.00;58.50
1716;DHT22;855;48.824;9.220;2023-03-23T08:22:18;18.10;58.40
1716;DHT22;855;48.824;9.220;2023-03-23T08:24:46;18.00;58.40
1716;DHT22;855;48.824;9.220;2023-03-23T08:27:14;17.90;59.80
1716;DHT22;855;48.824;9.220;2023-03-23T08:29:43;17.90;59.30
1716;DHT22;855;48.824;9.220;2023-03-23T08:32:11;17.80;59.50
1716;DHT22;855;48.824;9.220;2023-03-23T08:34:38;17.80;59.70
1716;DHT22;855;48.824;9.220;2023-03-23T08:37:04;17.90;59.70
1716;DHT22;855;48.824;9.220;2023-03-23T08:39:31;17.90;59.90
1716;DHT22;855;48.824;9.220;2023-03-23T08:41:59;17.80;60.30
1716;DHT22;855;48.824;9.220;2023-03-23T08:44:26;17.80;60.10
1716;DHT22;855;48.824;9.220;2023-03-23T08:46:54;17.90;61.10
1716;DHT22;855;48.824;9.220;2023-03-23T08:49:23;17.90;60.60
1716;DHT22;855;48.824;9.220;2023-03-23T08:51:51;18.10;60.60
1716;DHT22;855;48.824;9.220;2023-03-23T08:54:17;18.20;60.80
1716;DHT22;855;48.824;9.220;2023-03-23T08:56:44;18.20;60.40
1716;DHT22;855;48.824;9.220;2023-03-23T08:59:11;18.20;59.90
1716;DHT22;855;48.824;9.220;2023-03-23T09:01:38;18.10;60.30
1716;DHT22;855;48.824;9.220;2023-03-23T09:04:07;18.10;60.80
1716;DHT22;855;48.824;9.220;2023-03-23T09:06:34;18.00;61.20
1716;DHT22;855;48.824;9.220;2023-03-23T09:09:02;17.80;62.20
1716;DHT22;855;48.824;9.220;2023-03-23T09:11:32;17.70;62.80
1716;DHT22;855;48.824;9.220;2023-03-23T09:13:59;17.60;63.40
1716;DHT22;855;48.824;9.220;2023-03-23T09:16:27;17.60;63.50
1716;DHT22;855;48.824;9.220;2023-03-23T09:18:54;17.60;63.50
1716;DHT22;855;48.824;9.220;2023-03-23T09:21:23;17.70;64.00
1716;DHT22;855;48.824;9.220;2023-03-23T09:23:50;17.70;63.10
1716;DHT22;855;48.824;9.220;2023-03-23T09:26:17;17.80;63.50
1716;DHT22;855;48.824;9.220;2023-03-23T09:28:44;18.00;63.20
1716;DHT22;855;48.824;9.220;2023-03-23T09:31:12;18.10;63.00
1716;DHT22;855;48.824;9.220;2023-03-23T09:33:39;18.20;62.20
1716;DHT22;855;48.824;9.220;2023-03-23T09:36:06;18.30;61.90
1716;DHT22;855;48.824;9.220;2023-03-23T09:38:39;18.30;62.30
1716;DHT22;855;48.824;9.220;2023-03-23T09:41:26;18.30;62.20
1716;DHT22;855;48.824;9.220;2023-03-23T09:44:04;18.20;61.00
1716;DHT22;855;48.824;9.220;2023-03-23T09:46:47;18.20;61.60
1716;DHT22;855;48.824;9.220;2023-03-23T09:49:20;18.20;61.90
1716;DHT22;855;48.824;9.220;2023-03-23T09:51:51;18.30;62.00
1716;DHT22;855;48.824;9.220;2023-03-23T09:54:24;18.40;61.00
1716;DHT22;855;48.824;9.220;2023-03-23T09:56:53;18.40;60.30
1716;DHT22;855;48.824;9.220;2023-03-23T09:59:24;18.40;60.70
1716;DHT22;855;48.824;9.220;2023-03-23T10:01:57;18.20;61.20
1716;DHT22;855;48.824;9.220;2023-03-23T10:04:31;18.00;62.00
1716;DHT22;855;48.824;9.220;2023-03-23T10:07:08;17.90;62.30
1716;DHT22;855;48.824;9.220;2023-03-23T10:09:37;17.90;62.40
1716;DHT22;855;48.824;9.220;2023-03-23T10:12:12;18.00;62.70
1716;DHT22;855;48.824;9.220;2023-03-23T10:14:50;18.10;63.40
1716;DHT22;855;48.824;9.220;2023-03-23T10:17:22;18.30;62.60
1716;DHT22;855;48.824;9.220;2023-03-23T10:19:54;18.30;62.60
1716;DHT22;855;48.824;9.220;2023-03-23T10:22:28;18.40;61.90
1716;DHT22;855;48.824;9.220;2023-03-23T10:25:03;18.60;61.80
1716;DHT22;855;48.824;9.220;2023-03-23T10:27:38;18.80;61.60
1716;DHT22;855;48.824;9.220;2023-03-23T10:30:15;18.70;60.60
1716;DHT22;855;48.824;9.220;2023-03-23T10:32:48;18.70;61.20
1716;DHT22;855;48.824;9.220;2023-03-23T10:35:20;18.60;61.50
1716;DHT22;855;48.824;9.220;2023-03-23T10:37:54;18.60;62.00
1716;DHT22;855;48.824;9.220;2023-03-23T10:40:27;18.70;62.00
1716;DHT22;855;48.824;9.220;2023-03-23T10:42:54;18.70;61.40
1716;DHT22;855;48.824;9.220;2023-03-23T10:45:24;18.60;61.80
1716;DHT22;855;48.824;9.220;2023-03-23T10:47:54;18.60;62.20
1716;DHT22;855;48.824;9.220;2023-03-23T10:50:25;18.60;62.30
1716;DHT22;855;48.824;9.220;2023-03-23T10:52:53;18.50;62.80
1716;DHT22;855;48.824;9.220;2023-03-23T10:55:34;18.40;63.00
1716;DHT22;855;48.824;9.220;2023-03-23T10:58:04;18.40;63.50
1716;DHT22;855;48.824;9.220;2023-03-23T11:00:31;18.40;63.20
1716;DHT22;855;48.824;9.220;2023-03-23T11:03:01;18.40;63.10
1716;DHT22;855;48.824;9.220;2023-03-23T11:05:35;18.40;62.70
1716;DHT22;855;48.824;9.220;2023-03-23T11:08:03;18.30;63.60
1716;DHT22;855;48.824;9.220;2023-03-23T11:10:39;18.30;63.80
1716;DHT22;855;48.824;9.220;2023-03-23T11:13:12;18.30;63.80
1716;DHT22;855;48.824;9.220;2023-03-23T11:15:40;18.20;64.20
1716;DHT22;855;48.824;9.220;2023-03-23T11:18:18;18.20;64.20
1716;DHT22;855;48.824;9.220;2023-03-23T11:20:47;18.20;64.00
1716;DHT22;855;48.824;9.220;2023-03-23T11:23:20;18.30;65.30
1716;DHT22;855;48.824;9.220;2023-03-23T11:25:58;18.50;64.30
1716;DHT22;855;48.824;9.220;2023-03-23T11:28:28;18.60;64.40
1716;DHT22;855;48.824;9.220;2023-03-23T11:30:58;18.60;63.90
1716;DHT22;855;48.824;9.220;2023-03-23T11:33:29;18.70;64.40
1716;DHT22;855;48.824;9.220;2023-03-23T11:35:56;18.80;63.50
1716;DHT22;855;48.824;9.220;2023-03-23T11:38:24;18.80;63.60
1716;DHT22;855;48.824;9.220;2023-03-23T11:40:54;19.00;64.30
1716;DHT22;855;48.824;9.220;2023-03-23T11:43:24;19.20;63.60
1716;DHT22;855;48.824;9.220;2023-03-23T11:46:01;19.20;62.40
1716;DHT22;855;48.824;9.220;2023-03-23T11:48:34;19.30;61.40
1716;DHT22;855;48.824;9.220;2023-03-23T11:51:06;19.40;61.00
1716;DHT22;855;48.824;9.220;2023-03-23T11:53:48;19.40;61.40
1716;DHT22;855;48.824;9.220;2023-03-23T11:56:23;19.50;60.70
1716;DHT22;855;48.824;9.220;2023-03-23T11:58:53;19.50;60.60
1716;DHT22;855;48.824;9.220;2023-03-23T12:01:30;19.50;59.70
1716;DHT22;855;48.824;9.220;2023-03-23T12:04:09;19.60;59.40
1716;DHT22;855;48.824;9.220;2023-03-23T12:06:46;19.70;59.00
1716;DHT22;855;48.824;9.220;2023-03-23T12:09:24;19.80;58.50
1716;DHT22;855;48.824;9.220;2023-03-23T12:12:04;19.90;58.00
1716;DHT22;855;48.824;9.220;2023-03-23T12:14:43;19.90;57.80
1716;DHT22;855;48.824;9.220;2023-03-23T12:17:20;19.90;58.20
1716;DHT22;855;48.824;9.220;2023-03-23T12:19:56;19.80;58.30
1716;DHT22;855;48.824;9.220;2023-03-23T12:22:40;19.70;58.30
1716;DHT22;855;48.824;9.220;2023-03-23T12:25:19;19.90;57.80
1716;DHT22;855;48.824;9.220;2023-03-23T12:27:51;20.00;57.40
1716;DHT22;855;48.824;9.220;2023-03-23T12:30:31;20.00;57.50
1716;DHT22;855;48.824;9.220;2023-03-23T12:33:15;19.90;56.70
1716;DHT22;855;48.824;9.220;2023-03-23T12:36:01;19.90;56.50
1716;DHT22;855;48.824;9.220;2023-03-23T12:38:51;19.90;57.50
1716;DHT22;855;48.824;9.220;2023-03-23T12:41:22;19.80;57.50
1716;DHT22;855;48.824;9.220;2023-03-23T12:43:53;19.70;57.70
1716;DHT22;855;48.824;9.220;2023-03-23T12:46:47;19.50;57.00
1716;DHT22;855;48.824;9.220;2023-03-23T12:49:19;19.50;57.90
1716;DHT22;855;48.824;9.220;2023-03-23T12:51:51;19.50;57.40
1716;DHT22;855;48.824;9.220;2023-03-23T12:54:26;19.50;57.80
1716;DHT22;855;48.824;9.220;2023-03-23T12:56:58;19.50;58.50
1716;DHT22;855;48.824;9.220;2023-03-23T12:59:33;19.60;58.30
1716;DHT22;855;48.824;9.220;2023-03-23T13:02:16;19.70;58.50
1716;DHT22;855;48.824;9.220;2023-03-23T13:04:49;19.60;58.70
1716;DHT22;855;48.824;9.220;2023-03-23T13:07:21;19.60;59.40
1716;DHT22;855;48.824;9.220;2023-03-23T13:09:55;19.50;59.00
1716;DHT22;855;48.824;9.220;2023-03-23T13:12:25;19.50;58.40
1716;DHT22;855;48.824;9.220;2023-03-23T13:15:05;19.40;58.50
1716;DHT22;855;48.824;9.220;2023-03-23T13:17:48;19.40;59.00
1716;DHT22;855;48.824;9.220;2023-03-23T13:20:37;19.50;60.60
1716;DHT22;855;48.824;9.220;2023-03-23T13:23:11;19.30;63.90
1716;DHT22;855;48.824;9.220;2023-03-23T13:25:48;19.40;64.70
1716;DHT22;855;48.824;9.220;2023-03-23T13:28:16;19.30;63.60
1716;DHT22;855;48.824;9.220;2023-03-23T13:30:57;19.40;64.30
1716;DHT22;855;48.824;9.220;2023-03-23T13:33:28;19.50;64.40
1716;DHT22;855;48.824;9.220;2023-03-23T13:35:55;19.70;64.00
1716;DHT22;855;48.824;9.220;2023-03-23T13:38:24;19.90;63.10
1716;DHT22;855;48.824;9.220;2023-03-23T13:40:52;20.10;62.70
1716;DHT22;855;48.824;9.220;2023-03-23T13:43:29;20.30;61.10
1716;DHT22;855;48.824;9.220;2023-03-23T13:46:08;20.30;60.00
1716;DHT22;855;48.824;9.220;2023-03-23T13:49:17;20.40;59.30
1716;DHT22;855;48.824;9.220;2023-03-23T13:52:00;20.30;59.30
1716;DHT22;855;48.824;9.220;2023-03-23T13:54:31;20.30;58.40
1716;DHT22;855;48.824;9.220;2023-03-23T13:57:00;20.40;57.70
1716;DHT22;855;48.824;9.220;2023-03-23T13:59:32;20.40;56.90
1716;DHT22;855;48.824;9.220;2023-03-23T14:02:27;20.60;56.70
1716;DHT22;855;48.824;9.220;2023-03-23T14:07:54;20.70;56.20
1716;DHT22;855;48.824;9.220;2023-03-23T14:10:23;20.70;55.30
1716;DHT22;855;48.824;9.220;2023-03-23T14:12:52;20.50;55.80
1716;DHT22;855;48.824;9.220;2023-03-23T14:15:20;20.40;55.40
1716;DHT22;855;48.824;9.220;2023-03-23T14:17:47;20.40;55.80
1716;DHT22;855;48.824;9.220;2023-03-23T14:20:23;20.50;54.50
1716;DHT22;855;48.824;9.220;2023-03-23T14:22:54;20.30;55.50
1716;DHT22;855;48.824;9.220;2023-03-23T14:25:25;20.20;55.50
1716;DHT22;855;48.824;9.220;2023-03-23T14:27:53;20.10;55.30
1716;DHT22;855;48.824;9.220;2023-03-23T14:30:22;20.20;55.30
1716;DHT22;855;48.824;9.220;2023-03-23T14:32:51;20.20;55.70
1716;DHT22;855;48.824;9.220;2023-03-23T14:35:26;20.20;55.20
1716;DHT22;855;48.824;9.220;2023-03-23T14:37:53;20.30;55.50
1716;DHT22;855;48.824;9.220;2023-03-23T14:40:21;20.40;55.90
1716;DHT22;855;48.824;9.220;2023-03-23T14:42:50;20.50;54.90
1716;DHT22;855;48.824;9.220;2023-03-23T14:45:21;20.40;54.50
1716;DHT22;855;48.824;9.220;2023-03-23T14:47:51;20.30;54.50
1716;DHT22;855;48.824;9.220;2023-03-23T14:50:28;20.10;54.40
1716;DHT22;855;48.824;9.220;2023-03-23T14:52:58;20.00;54.40
1716;DHT22;855;48.824;9.220;2023-03-23T14:55:25;19.80;54.70
1716;DHT22;855;48.824;9.220;2023-03-23T14:57:54;19.80;55.20
1716;DHT22;855;48.824;9.220;2023-03-23T15:00:23;19.80;55.00
1716;DHT22;855;48.824;9.220;2023-03-23T15:02:53;19.80;55.90
1716;DHT22;855;48.824;9.220;2023-03-23T15:05:23;19.90;54.50
1716;DHT22;855;48.824;9.220;2023-03-23T15:07:56;20.00;54.40
1716;DHT22;855;48.824;9.220;2023-03-23T15:10:25;20.00;54.00
1716;DHT22;855;48.824;9.220;2023-03-23T15:12:52;20.00;53.70
1716;DHT22;855;48.824;9.220;2023-03-23T15:15:25;19.90;54.00
1716;DHT22;855;48.824;9.220;2023-03-23T15:17:53;19.90;54.50
1716;DHT22;855;48.824;9.220;2023-03-23T15:20:25;19.90;54.20
1716;DHT22;855;48.824;9.220;2023-03-23T15:22:54;19.90;54.30
1716;DHT22;855;48.824;9.220;2023-03-23T15:25:22;19.80;54.20
1716;DHT22;855;48.824;9.220;2023-03-23T15:27:51;19.70;54.40
1716;DHT22;855;48.824;9.220;2023-03-23T15:30:32;19.80;53.60
1716;DHT22;855;48.824;9.220;2023-03-23T15:33:02;19.80;53.70
1716;DHT22;855;48.824;9.220;2023-03-23T15:35:34;19.90;54.00
1716;DHT22;855;48.824;9.220;2023-03-23T15:38:04;19.90;53.90
1716;DHT22;855;48.824;9.220;2023-03-23T15:40:35;20.00;53.60
1716;DHT22;855;48.824;9.220;2023-03-23T15:43:08;19.90;53.40
1716;DHT22;855;48.824;9.220;2023-03-23T15:45:52;19.90;53.30
1716;DHT22;855;48.824;9.220;2023-03-23T15:48:19;19.80;52.70
1716;DHT22;855;48.824;9.220;2023-03-23T15:50:47;19.70;52.20
1716;DHT22;855;48.824;9.220;2023-03-23T15:53:22;19.70;52.60
1716;DHT22;855;48.824;9.220;2023-03-23T15:55:50;19.50;52.70
1716;DHT22;855;48.824;9.220;2023-03-23T15:58:17;19.60;52.60
1716;DHT22;855;48.824;9.220;2023-03-23T16:00:45;19.50;52.60
1716;DHT22;855;48.824;9.220;2023-03-23T16:03:19;19.40;52.90
1716;DHT22;855;48.824;9.220;2023-03-23T16:05:49;19.50;53.60
1716;DHT22;855;48.824;9.220;2023-03-23T16:08:18;19.30;53.20
1716;DHT22;855;48.824;9.220;2023-03-23T16:10:45;19.40;53.20
1716;DHT22;855;48.824;9.220;2023-03-23T16:13:12;19.40;53.60
1716;DHT22;855;48.824;9.220;2023-03-23T16:15:40;19.30;53.10
1716;DHT22;855;48.824;9.220;2023-03-23T16:18:08;19.40;53.70
1716;DHT22;855;48.824;9.220;2023-03-23T16:20:40;19.50;53.30
1716;DHT22;855;48.824;9.220;2023-03-23T16:23:08;19.60;53.60
1716;DHT22;855;48.824;9.220;2023-03-23T16:25:36;19.50;52.90
1716;DHT22;855;48.824;9.220;2023-03-23T16:28:03;19.30;53.90
1716;DHT22;855;48.824;9.220;2023-03-23T16:30:33;19.20;54.00
1716;DHT22;855;48.824;9.220;2023-03-23T16:33:01;19.10;53.90
1716;DHT22;855;48.824;9.220;2023-03-23T16:35:28;19.10;54.30
1716;DHT22;855;48.824;9.220;2023-03-23T16:37:56;19.10;54.30
1716;DHT22;855;48.824;9.220;2023-03-23T16:40:24;19.00;54.50
1716;DHT22;855;48.824;9.220;2023-03-23T16:42:53;18.90;54.80